Tomiei Maru — JD3429 — position and weather

sailwx.info

Track history (hours):
 
Tides and Currents Weather Stations Pressure Air Temp Water Temp Dewpoint Dewpoint Depression Visibility Wind Speed Wind Dir Waves Ship Positions

Tomiei Maru

Last reported at 2017-Dec-17 21:30 UTC. Time now 2017-Dec-17 21:44 UTC.
Position N 35°01' E 136°51'.

Length 75 m; draft 4.3 m.

Type: Cargo ship. MMSI: 431004012.

Date/timePositionNaut miles runAvg speedWind from/ knotsBaromVisibWave heightAir tempDewpointWater temp
2017-Dec-17 21:30N 35°01' E 136°51'0 0.0
2017-Dec-17 21:00N 35°01' E 136°51'0 0.1
2017-Dec-17 20:30N 35°01' E 136°51'0 0.0
2017-Dec-17 20:00N 35°01' E 136°51'0 0.0
2017-Dec-17 19:30N 35°01' E 136°51'0 0.1
2017-Dec-17 19:00N 35°01' E 136°51'4 7.7
2017-Dec-17 18:31N 34°58' E 136°48'611.6
2017-Dec-17 18:00N 34°52' E 136°47'611.8
2017-Dec-17 17:28N 34°46' E 136°48'511.7
2017-Dec-17 17:00N 34°41' E 136°52'104 7.9
2017-Dec-17 03:55N 33°53' E 135°01'512.7
2017-Dec-17 03:30N 33°57' E 134°57'912.6
2017-Dec-17 02:50N 34°03' E 134°50'412.9
2017-Dec-17 02:30N 34°06' E 134°47'713.2
2017-Dec-17 01:56N 34°12' E 134°41'613.2
2017-Dec-17 01:30N 34°16' E 134°36'612.2
2017-Dec-17 01:00N 34°18' E 134°29'612.4
2017-Dec-17 00:30N 34°21' E 134°23'1011.7
2017-Dec-16 23:39N 34°25' E 134°11'211.5
2017-Dec-16 23:30N 34°25' E 134°09'73 2.8
2017-Dec-15 21:30N 34°01' E 132°46'714.5
2017-Dec-15 21:01N 33°56' E 132°41'714.5
2017-Dec-15 20:31N 33°53' E 132°33'1014.0
2017-Dec-15 19:48N 33°50' E 132°21'413.8
2017-Dec-15 19:30N 33°50' E 132°16'713.3
2017-Dec-15 19:00N 33°48' E 132°08'912.9
2017-Dec-15 18:17N 33°45' E 131°58'413.4
2017-Dec-15 18:00N 33°46' E 131°53'713.1
2017-Dec-15 17:30N 33°45' E 131°45'613.4
2017-Dec-15 17:00N 33°46' E 131°38'713.4
2017-Dec-15 16:30N 33°48' E 131°30'713.6
2017-Dec-15 16:00N 33°49' E 131°22'713.7
2017-Dec-15 15:30N 33°51' E 131°14'713.9
2017-Dec-15 15:01N 33°54' E 131°06'713.6
2017-Dec-15 14:31N 33°58' E 130°60'612.6
2017-Dec-15 14:00N 33°55' E 130°54'612.7
2017-Dec-15 13:31N 33°58' E 130°47'713.7
2017-Dec-15 13:00N 33°57' E 130°39'713.5
2017-Dec-15 12:30N 33°56' E 130°31'713.6
2017-Dec-15 12:00N 33°51' E 130°25'713.7
2017-Dec-15 11:29N 33°45' E 130°19'612.0
2017-Dec-15 11:01N 33°40' E 130°17'612.3
2017-Dec-15 10:30N 33°36' E 130°23'0 0.7
2017-Dec-15 09:59N 33°36' E 130°23'0 0.0
2017-Dec-15 09:29N 33°36' E 130°23'0 0.0
2017-Dec-15 08:59N 33°36' E 130°23'0 0.0
2017-Dec-15 08:29N 33°36' E 130°23'0 0.0
2017-Dec-15 07:59N 33°36' E 130°23'0 0.0
2017-Dec-15 07:29N 33°36' E 130°23'0 0.0
2017-Dec-15 06:59N 33°36' E 130°23'0 0.0
2017-Dec-15 06:29N 33°36' E 130°23'0 0.0
2017-Dec-15 05:59N 33°36' E 130°23'0 0.0
2017-Dec-15 05:29N 33°36' E 130°23'0 0.0
2017-Dec-15 04:59N 33°36' E 130°23'0 0.0
2017-Dec-15 04:29N 33°36' E 130°23'0 0.0
2017-Dec-15 03:59N 33°36' E 130°23'0 0.0
2017-Dec-15 02:29N 33°36' E 130°23'0 0.0
2017-Dec-15 00:59N 33°36' E 130°23'0 0.0
2017-Dec-15 00:29N 33°36' E 130°23'0 0.0
2017-Dec-14 18:29N 33°36' E 130°23'0 0.0
2017-Dec-14 17:59N 33°36' E 130°23'0 0.0
2017-Dec-14 17:29N 33°36' E 130°23'0 0.0
2017-Dec-14 17:00N 33°36' E 130°23'0 0.0
2017-Dec-14 16:30N 33°36' E 130°23'0 0.0
2017-Dec-14 16:00N 33°36' E 130°23'0 0.0
2017-Dec-14 15:00N 33°36' E 130°23'0 0.0
2017-Dec-14 14:30N 33°36' E 130°23'0 0.0
2017-Dec-14 14:00N 33°36' E 130°23'1 2.0
2017-Dec-14 13:31N 33°37' E 130°22'611.8
2017-Dec-14 13:00N 33°40' E 130°17'611.5
2017-Dec-14 12:30N 33°46' E 130°19'612.7
2017-Dec-14 12:01N 33°50' E 130°24'612.3
2017-Dec-14 11:30N 33°55' E 130°29'612.9
2017-Dec-14 11:00N 33°57' E 130°36'713.3
2017-Dec-14 10:30N 33°58' E 130°44'612.8
2017-Dec-14 10:00N 33°57' E 130°52'3 5.3
2017-Dec-14 09:30N 33°54' E 130°52'0 0.0
2017-Dec-14 09:00N 33°54' E 130°52'0 0.0
2017-Dec-14 08:30N 33°54' E 130°52'0 0.0
2017-Dec-14 07:58N 33°54' E 130°52'0 0.0
2017-Dec-14 07:28N 33°54' E 130°52'0 0.0
2017-Dec-14 06:58N 33°54' E 130°52'0 0.0
2017-Dec-14 06:28N 33°54' E 130°52'0 0.0
2017-Dec-14 05:58N 33°54' E 130°52'0 0.0
2017-Dec-14 05:28N 33°54' E 130°52'0 0.0
2017-Dec-14 04:58N 33°54' E 130°52'0 0.0
2017-Dec-14 04:28N 33°54' E 130°52'0 0.0
2017-Dec-14 03:58N 33°54' E 130°52'0 0.0
2017-Dec-14 03:28N 33°54' E 130°52'0 0.0
2017-Dec-14 02:58N 33°54' E 130°52'0 0.0
2017-Dec-14 02:28N 33°54' E 130°52'0 0.0
2017-Dec-14 01:58N 33°54' E 130°52'0 0.0
2017-Dec-14 01:28N 33°54' E 130°52'0 0.0
2017-Dec-14 00:58N 33°54' E 130°52'0 0.0
2017-Dec-14 00:28N 33°54' E 130°52'0 0.0
2017-Dec-13 23:58N 33°54' E 130°52'0 0.0
2017-Dec-13 23:28N 33°54' E 130°52'0 0.0
2017-Dec-13 22:58N 33°54' E 130°52'0 0.0
2017-Dec-13 22:28N 33°54' E 130°52'0 0.0
2017-Dec-13 21:58N 33°54' E 130°52'0 0.0
2017-Dec-13 21:28N 33°54' E 130°52'0 0.0
2017-Dec-13 20:58N 33°54' E 130°52'0 0.0
2017-Dec-13 20:25N 33°54' E 130°52'0 0.0
2017-Dec-13 19:58N 33°54' E 130°52'0 0.0
2017-Dec-13 19:28N 33°54' E 130°52'0 0.0
2017-Dec-13 18:58N 33°54' E 130°52'0 0.0
2017-Dec-13 18:25N 33°54' E 130°52'0 0.0
2017-Dec-13 17:58N 33°54' E 130°52'0 0.0
2017-Dec-13 17:28N 33°54' E 130°52'0 0.0
2017-Dec-13 16:58N 33°54' E 130°52'0 0.0
2017-Dec-13 16:28N 33°54' E 130°52'0 0.0
2017-Dec-13 15:58N 33°54' E 130°52'0 0.0
2017-Dec-13 15:28N 33°54' E 130°52'0 0.0
2017-Dec-13 14:52N 33°54' E 130°52'0 0.0
2017-Dec-13 14:28N 33°54' E 130°52'0 0.0
2017-Dec-13 13:58N 33°54' E 130°52'0 0.0
2017-Dec-13 13:28N 33°54' E 130°52'0 0.0
2017-Dec-13 12:58N 33°54' E 130°52'0 0.0
2017-Dec-13 12:28N 33°54' E 130°52'0 0.0
2017-Dec-13 11:58N 33°54' E 130°52'0 0.0
2017-Dec-13 11:28N 33°54' E 130°52'0 0.0
2017-Dec-13 10:58N 33°54' E 130°52'0 0.0
2017-Dec-13 10:28N 33°54' E 130°52'0 0.0
2017-Dec-13 09:58N 33°54' E 130°52'0 0.0
2017-Dec-13 09:31N 33°54' E 130°52'0 0.1
2017-Dec-13 09:00N 33°54' E 130°52'5 9.4
2017-Dec-13 08:31N 33°57' E 130°57'5 9.5
2017-Dec-13 08:00N 33°58' E 131°02'612.3
2017-Dec-13 07:30N 33°54' E 131°09'612.3
2017-Dec-13 07:01N 33°52' E 131°15'612.2
2017-Dec-13 06:31N 33°51' E 131°23'612.3
2017-Dec-13 06:00N 33°50' E 131°30'612.1
2017-Dec-13 05:28N 33°48' E 131°38'612.0
2017-Dec-13 05:00N 33°47' E 131°44'1512.0
2017-Dec-13 03:45N 33°46' E 132°02'1112.4
2017-Dec-13 02:52N 33°50' E 132°14'1712.7
2017-Dec-13 01:34N 33°53' E 132°34'212.8
2017-Dec-13 01:23N 33°54' E 132°36'513.1
2017-Dec-13 00:58N 33°57' E 132°42'9111.3
2017-Dec-12 16:56N 34°26' E 134°26'512.1
2017-Dec-12 16:30N 34°28' E 134°31'612.0
2017-Dec-12 16:00N 34°30' E 134°38'611.7
2017-Dec-12 15:30N 34°32' E 134°45'611.0
2017-Dec-12 15:00N 34°34' E 134°51'510.1
2017-Dec-12 14:30N 34°37' E 134°57'4 8.8
2017-Dec-12 14:00N 34°37' E 135°02'5 9.5
2017-Dec-12 13:30N 34°36' E 135°07'611.4
2017-Dec-12 13:00N 34°36' E 135°14'611.8
2017-Dec-12 12:30N 34°37' E 135°21'5 9.1
2017-Dec-12 12:01N 34°38' E 135°27'1 1.1
2017-Dec-12 11:31N 34°38' E 135°28'0 0.0
2017-Dec-12 11:00N 34°38' E 135°28'0 0.0
2017-Dec-12 10:30N 34°38' E 135°28'0 0.0
2017-Dec-12 10:00N 34°38' E 135°28'0 0.0
2017-Dec-12 09:30N 34°38' E 135°28'0 0.0
2017-Dec-12 08:59N 34°38' E 135°28'0 0.0
2017-Dec-12 08:30N 34°38' E 135°28'0 0.0
2017-Dec-12 07:56N 34°38' E 135°28'0 0.0
2017-Dec-12 07:30N 34°38' E 135°28'0 0.0
2017-Dec-12 06:59N 34°38' E 135°28'0 0.0
2017-Dec-12 06:29N 34°38' E 135°28'0 0.0
2017-Dec-12 05:59N 34°38' E 135°28'0 0.0
2017-Dec-12 05:26N 34°38' E 135°28'0 0.0
2017-Dec-12 04:56N 34°38' E 135°28'0 0.0
2017-Dec-12 04:26N 34°38' E 135°28'0 0.0
2017-Dec-12 03:59N 34°38' E 135°28'0 0.0
2017-Dec-12 03:29N 34°38' E 135°28'0 0.0
2017-Dec-12 03:00N 34°38' E 135°28'0 0.0
2017-Dec-12 02:29N 34°38' E 135°28'0 0.0
2017-Dec-12 01:56N 34°38' E 135°28'0 0.0
2017-Dec-12 01:31N 34°38' E 135°28'3 6.3
2017-Dec-12 01:00N 34°38' E 135°24'713.0
2017-Dec-12 00:30N 34°34' E 135°18'613.0
2017-Dec-12 00:01N 34°29' E 135°13'612.8
2017-Dec-11 23:30N 34°24' E 135°08'612.6
2017-Dec-11 23:00N 34°18' E 135°04'611.4
2017-Dec-11 22:30N 34°13' E 135°03'612.3
2017-Dec-11 22:00N 34°07' E 135°03'115 3.3
2017-Dec-10 10:47N 34°48' E 137°13'310.7
2017-Dec-10 10:30N 34°45' E 137°11'611.9
2017-Dec-10 10:00N 34°42' E 137°05'114 8.6
2017-Dec-09 20:51N 33°53' E 135°01'412.3
2017-Dec-09 20:29N 33°56' E 134°58'612.4
2017-Dec-09 20:00N 34°00' E 134°53'612.2
2017-Dec-09 19:30N 34°05' E 134°48'712.9
2017-Dec-09 19:00N 34°10' E 134°43'713.5
2017-Dec-09 18:28N 34°16' E 134°37'612.5
2017-Dec-09 18:00N 34°18' E 134°31'612.2
2017-Dec-09 17:29N 34°20' E 134°24'1111.9
2017-Dec-09 16:36N 34°24' E 134°12'211.3
2017-Dec-09 16:24N 34°25' E 134°10'73 2.7
2017-Dec-08 13:29N 34°01' E 132°47'613.7
2017-Dec-08 13:00N 33°56' E 132°42'913.4
2017-Dec-08 12:22N 33°52' E 132°33'913.4
2017-Dec-08 11:43N 33°50' E 132°22'413.0
2017-Dec-08 11:25N 33°50' E 132°18'513.1
2017-Dec-08 11:00N 33°49' E 132°11'612.9
2017-Dec-08 10:30N 33°46' E 132°04'812.6
2017-Dec-08 09:50N 33°46' E 131°54'513.4
2017-Dec-08 09:29N 33°47' E 131°49'613.6
2017-Dec-08 09:01N 33°48' E 131°41'713.6
2017-Dec-08 08:30N 33°49' E 131°33'713.5
2017-Dec-08 08:00N 33°50' E 131°25'713.7
2017-Dec-08 07:31N 33°51' E 131°17'713.4
2017-Dec-08 07:00N 33°53' E 131°09'713.4
2017-Dec-08 06:31N 33°57' E 131°03'5 9.6
2017-Dec-08 06:01N 33°57' E 130°57'4 7.3
2017-Dec-08 05:30N 33°54' E 130°53'1 1.9
2017-Dec-08 05:01N 33°54' E 130°52'0 0.0
2017-Dec-08 04:29N 33°54' E 130°52'0 0.0
2017-Dec-08 03:59N 33°54' E 130°52'0 0.0
2017-Dec-08 03:29N 33°54' E 130°52'0 0.0
2017-Dec-08 02:59N 33°54' E 130°52'0 0.0
2017-Dec-08 02:26N 33°54' E 130°52'0 0.0
2017-Dec-08 01:59N 33°54' E 130°52'0 0.0
2017-Dec-08 01:29N 33°54' E 130°52'0 0.0
2017-Dec-08 00:59N 33°54' E 130°52'0 0.0
2017-Dec-08 00:29N 33°54' E 130°52'0 0.0
2017-Dec-07 23:59N 33°54' E 130°52'0 0.0
2017-Dec-07 23:29N 33°54' E 130°52'0 0.0
2017-Dec-07 22:59N 33°54' E 130°52'0 0.0
2017-Dec-07 22:29N 33°54' E 130°52'0 0.0
2017-Dec-07 21:59N 33°54' E 130°52'  
Track history (hours):
 
Tides and Currents Weather Stations Pressure Air Temp Water Temp Dewpoint Dewpoint Depression Visibility Wind Speed Wind Dir Waves Ship Positions

Tomiei Maru

Last reported at 2017-Dec-17 21:30 UTC. Time now 2017-Dec-17 21:44 UTC.
Position N 35°01' E 136°51'.

Length 75 m; draft 4.3 m.

Type: Cargo ship. MMSI: 431004012.

Date/timePositionNaut miles runAvg speedWind from/ knotsBaromVisibWave heightAir tempDewpointWater temp
2017-Dec-17 21:30N 35°01' E 136°51'0 0.0
2017-Dec-17 21:00N 35°01' E 136°51'0 0.1
2017-Dec-17 20:30N 35°01' E 136°51'0 0.0
2017-Dec-17 20:00N 35°01' E 136°51'0 0.0
2017-Dec-17 19:30N 35°01' E 136°51'0 0.1
2017-Dec-17 19:00N 35°01' E 136°51'4 7.7
2017-Dec-17 18:31N 34°58' E 136°48'611.6
2017-Dec-17 18:00N 34°52' E 136°47'611.8
2017-Dec-17 17:28N 34°46' E 136°48'511.7
2017-Dec-17 17:00N 34°41' E 136°52'104 7.9
2017-Dec-17 03:55N 33°53' E 135°01'512.7
2017-Dec-17 03:30N 33°57' E 134°57'912.6
2017-Dec-17 02:50N 34°03' E 134°50'412.9
2017-Dec-17 02:30N 34°06' E 134°47'713.2
2017-Dec-17 01:56N 34°12' E 134°41'613.2
2017-Dec-17 01:30N 34°16' E 134°36'612.2
2017-Dec-17 01:00N 34°18' E 134°29'612.4
2017-Dec-17 00:30N 34°21' E 134°23'1011.7
2017-Dec-16 23:39N 34°25' E 134°11'211.5
2017-Dec-16 23:30N 34°25' E 134°09'73 2.8
2017-Dec-15 21:30N 34°01' E 132°46'714.5
2017-Dec-15 21:01N 33°56' E 132°41'714.5
2017-Dec-15 20:31N 33°53' E 132°33'1014.0
2017-Dec-15 19:48N 33°50' E 132°21'413.8
2017-Dec-15 19:30N 33°50' E 132°16'713.3
2017-Dec-15 19:00N 33°48' E 132°08'912.9
2017-Dec-15 18:17N 33°45' E 131°58'413.4
2017-Dec-15 18:00N 33°46' E 131°53'713.1
2017-Dec-15 17:30N 33°45' E 131°45'613.4
2017-Dec-15 17:00N 33°46' E 131°38'713.4
2017-Dec-15 16:30N 33°48' E 131°30'713.6
2017-Dec-15 16:00N 33°49' E 131°22'713.7
2017-Dec-15 15:30N 33°51' E 131°14'713.9
2017-Dec-15 15:01N 33°54' E 131°06'713.6
2017-Dec-15 14:31N 33°58' E 130°60'612.6
2017-Dec-15 14:00N 33°55' E 130°54'612.7
2017-Dec-15 13:31N 33°58' E 130°47'713.7
2017-Dec-15 13:00N 33°57' E 130°39'713.5
2017-Dec-15 12:30N 33°56' E 130°31'713.6
2017-Dec-15 12:00N 33°51' E 130°25'713.7
2017-Dec-15 11:29N 33°45' E 130°19'612.0
2017-Dec-15 11:01N 33°40' E 130°17'612.3
2017-Dec-15 10:30N 33°36' E 130°23'0 0.7
2017-Dec-15 09:59N 33°36' E 130°23'0 0.0
2017-Dec-15 09:29N 33°36' E 130°23'0 0.0
2017-Dec-15 08:59N 33°36' E 130°23'0 0.0
2017-Dec-15 08:29N 33°36' E 130°23'0 0.0
2017-Dec-15 07:59N 33°36' E 130°23'0 0.0
2017-Dec-15 07:29N 33°36' E 130°23'0 0.0
2017-Dec-15 06:59N 33°36' E 130°23'0 0.0
2017-Dec-15 06:29N 33°36' E 130°23'0 0.0
2017-Dec-15 05:59N 33°36' E 130°23'0 0.0
2017-Dec-15 05:29N 33°36' E 130°23'0 0.0
2017-Dec-15 04:59N 33°36' E 130°23'0 0.0
2017-Dec-15 04:29N 33°36' E 130°23'0 0.0
2017-Dec-15 03:59N 33°36' E 130°23'0 0.0
2017-Dec-15 02:29N 33°36' E 130°23'0 0.0
2017-Dec-15 00:59N 33°36' E 130°23'0 0.0
2017-Dec-15 00:29N 33°36' E 130°23'0 0.0
2017-Dec-14 18:29N 33°36' E 130°23'0 0.0
2017-Dec-14 17:59N 33°36' E 130°23'0 0.0
2017-Dec-14 17:29N 33°36' E 130°23'0 0.0
2017-Dec-14 17:00N 33°36' E 130°23'0 0.0
2017-Dec-14 16:30N 33°36' E 130°23'0 0.0
2017-Dec-14 16:00N 33°36' E 130°23'0 0.0
2017-Dec-14 15:00N 33°36' E 130°23'0 0.0
2017-Dec-14 14:30N 33°36' E 130°23'0 0.0
2017-Dec-14 14:00N 33°36' E 130°23'1 2.0
2017-Dec-14 13:31N 33°37' E 130°22'611.8
2017-Dec-14 13:00N 33°40' E 130°17'611.5
2017-Dec-14 12:30N 33°46' E 130°19'612.7
2017-Dec-14 12:01N 33°50' E 130°24'612.3
2017-Dec-14 11:30N 33°55' E 130°29'612.9
2017-Dec-14 11:00N 33°57' E 130°36'713.3
2017-Dec-14 10:30N 33°58' E 130°44'612.8
2017-Dec-14 10:00N 33°57' E 130°52'3 5.3
2017-Dec-14 09:30N 33°54' E 130°52'0 0.0
2017-Dec-14 09:00N 33°54' E 130°52'0 0.0
2017-Dec-14 08:30N 33°54' E 130°52'0 0.0
2017-Dec-14 07:58N 33°54' E 130°52'0 0.0
2017-Dec-14 07:28N 33°54' E 130°52'0 0.0
2017-Dec-14 06:58N 33°54' E 130°52'0 0.0
2017-Dec-14 06:28N 33°54' E 130°52'0 0.0
2017-Dec-14 05:58N 33°54' E 130°52'0 0.0
2017-Dec-14 05:28N 33°54' E 130°52'0 0.0
2017-Dec-14 04:58N 33°54' E 130°52'0 0.0
2017-Dec-14 04:28N 33°54' E 130°52'0 0.0
2017-Dec-14 03:58N 33°54' E 130°52'0 0.0
2017-Dec-14 03:28N 33°54' E 130°52'0 0.0
2017-Dec-14 02:58N 33°54' E 130°52'0 0.0
2017-Dec-14 02:28N 33°54' E 130°52'0 0.0
2017-Dec-14 01:58N 33°54' E 130°52'0 0.0
2017-Dec-14 01:28N 33°54' E 130°52'0 0.0
2017-Dec-14 00:58N 33°54' E 130°52'0 0.0
2017-Dec-14 00:28N 33°54' E 130°52'0 0.0
2017-Dec-13 23:58N 33°54' E 130°52'0 0.0
2017-Dec-13 23:28N 33°54' E 130°52'0 0.0
2017-Dec-13 22:58N 33°54' E 130°52'0 0.0
2017-Dec-13 22:28N 33°54' E 130°52'0 0.0
2017-Dec-13 21:58N 33°54' E 130°52'0 0.0
2017-Dec-13 21:28N 33°54' E 130°52'0 0.0
2017-Dec-13 20:58N 33°54' E 130°52'0 0.0
2017-Dec-13 20:25N 33°54' E 130°52'0 0.0
2017-Dec-13 19:58N 33°54' E 130°52'0 0.0
2017-Dec-13 19:28N 33°54' E 130°52'0 0.0
2017-Dec-13 18:58N 33°54' E 130°52'0 0.0
2017-Dec-13 18:25N 33°54' E 130°52'0 0.0
2017-Dec-13 17:58N 33°54' E 130°52'0 0.0
2017-Dec-13 17:28N 33°54' E 130°52'0 0.0
2017-Dec-13 16:58N 33°54' E 130°52'0 0.0
2017-Dec-13 16:28N 33°54' E 130°52'0 0.0
2017-Dec-13 15:58N 33°54' E 130°52'0 0.0
2017-Dec-13 15:28N 33°54' E 130°52'0 0.0
2017-Dec-13 14:52N 33°54' E 130°52'0 0.0
2017-Dec-13 14:28N 33°54' E 130°52'0 0.0
2017-Dec-13 13:58N 33°54' E 130°52'0 0.0
2017-Dec-13 13:28N 33°54' E 130°52'0 0.0
2017-Dec-13 12:58N 33°54' E 130°52'0 0.0
2017-Dec-13 12:28N 33°54' E 130°52'0 0.0
2017-Dec-13 11:58N 33°54' E 130°52'0 0.0
2017-Dec-13 11:28N 33°54' E 130°52'0 0.0
2017-Dec-13 10:58N 33°54' E 130°52'0 0.0
2017-Dec-13 10:28N 33°54' E 130°52'0 0.0
2017-Dec-13 09:58N 33°54' E 130°52'0 0.0
2017-Dec-13 09:31N 33°54' E 130°52'0 0.1
2017-Dec-13 09:00N 33°54' E 130°52'5 9.4
2017-Dec-13 08:31N 33°57' E 130°57'5 9.5
2017-Dec-13 08:00N 33°58' E 131°02'612.3
2017-Dec-13 07:30N 33°54' E 131°09'612.3
2017-Dec-13 07:01N 33°52' E 131°15'612.2
2017-Dec-13 06:31N 33°51' E 131°23'612.3
2017-Dec-13 06:00N 33°50' E 131°30'612.1
2017-Dec-13 05:28N 33°48' E 131°38'612.0
2017-Dec-13 05:00N 33°47' E 131°44'1512.0
2017-Dec-13 03:45N 33°46' E 132°02'1112.4
2017-Dec-13 02:52N 33°50' E 132°14'1712.7
2017-Dec-13 01:34N 33°53' E 132°34'212.8
2017-Dec-13 01:23N 33°54' E 132°36'513.1
2017-Dec-13 00:58N 33°57' E 132°42'9111.3
2017-Dec-12 16:56N 34°26' E 134°26'512.1
2017-Dec-12 16:30N 34°28' E 134°31'612.0
2017-Dec-12 16:00N 34°30' E 134°38'611.7
2017-Dec-12 15:30N 34°32' E 134°45'611.0
2017-Dec-12 15:00N 34°34' E 134°51'510.1
2017-Dec-12 14:30N 34°37' E 134°57'4 8.8
2017-Dec-12 14:00N 34°37' E 135°02'5 9.5
2017-Dec-12 13:30N 34°36' E 135°07'611.4
2017-Dec-12 13:00N 34°36' E 135°14'611.8
2017-Dec-12 12:30N 34°37' E 135°21'5 9.1
2017-Dec-12 12:01N 34°38' E 135°27'1 1.1
2017-Dec-12 11:31N 34°38' E 135°28'0 0.0
2017-Dec-12 11:00N 34°38' E 135°28'0 0.0
2017-Dec-12 10:30N 34°38' E 135°28'0 0.0
2017-Dec-12 10:00N 34°38' E 135°28'0 0.0
2017-Dec-12 09:30N 34°38' E 135°28'0 0.0
2017-Dec-12 08:59N 34°38' E 135°28'0 0.0
2017-Dec-12 08:30N 34°38' E 135°28'0 0.0
2017-Dec-12 07:56N 34°38' E 135°28'0 0.0
2017-Dec-12 07:30N 34°38' E 135°28'0 0.0
2017-Dec-12 06:59N 34°38' E 135°28'0 0.0
2017-Dec-12 06:29N 34°38' E 135°28'0 0.0
2017-Dec-12 05:59N 34°38' E 135°28'0 0.0
2017-Dec-12 05:26N 34°38' E 135°28'0 0.0
2017-Dec-12 04:56N 34°38' E 135°28'0 0.0
2017-Dec-12 04:26N 34°38' E 135°28'0 0.0
2017-Dec-12 03:59N 34°38' E 135°28'0 0.0
2017-Dec-12 03:29N 34°38' E 135°28'0 0.0
2017-Dec-12 03:00N 34°38' E 135°28'0 0.0
2017-Dec-12 02:29N 34°38' E 135°28'0 0.0
2017-Dec-12 01:56N 34°38' E 135°28'0 0.0
2017-Dec-12 01:31N 34°38' E 135°28'3 6.3
2017-Dec-12 01:00N 34°38' E 135°24'713.0
2017-Dec-12 00:30N 34°34' E 135°18'613.0
2017-Dec-12 00:01N 34°29' E 135°13'612.8
2017-Dec-11 23:30N 34°24' E 135°08'612.6
2017-Dec-11 23:00N 34°18' E 135°04'611.4
2017-Dec-11 22:30N 34°13' E 135°03'612.3
2017-Dec-11 22:00N 34°07' E 135°03'115 3.3
2017-Dec-10 10:47N 34°48' E 137°13'310.7
2017-Dec-10 10:30N 34°45' E 137°11'611.9
2017-Dec-10 10:00N 34°42' E 137°05'114 8.6
2017-Dec-09 20:51N 33°53' E 135°01'412.3
2017-Dec-09 20:29N 33°56' E 134°58'612.4
2017-Dec-09 20:00N 34°00' E 134°53'612.2
2017-Dec-09 19:30N 34°05' E 134°48'712.9
2017-Dec-09 19:00N 34°10' E 134°43'713.5
2017-Dec-09 18:28N 34°16' E 134°37'612.5
2017-Dec-09 18:00N 34°18' E 134°31'612.2
2017-Dec-09 17:29N 34°20' E 134°24'1111.9
2017-Dec-09 16:36N 34°24' E 134°12'211.3
2017-Dec-09 16:24N 34°25' E 134°10'73 2.7
2017-Dec-08 13:29N 34°01' E 132°47'613.7
2017-Dec-08 13:00N 33°56' E 132°42'913.4
2017-Dec-08 12:22N 33°52' E 132°33'913.4
2017-Dec-08 11:43N 33°50' E 132°22'413.0
2017-Dec-08 11:25N 33°50' E 132°18'513.1
2017-Dec-08 11:00N 33°49' E 132°11'612.9
2017-Dec-08 10:30N 33°46' E 132°04'812.6
2017-Dec-08 09:50N 33°46' E 131°54'513.4
2017-Dec-08 09:29N 33°47' E 131°49'613.6
2017-Dec-08 09:01N 33°48' E 131°41'713.6
2017-Dec-08 08:30N 33°49' E 131°33'713.5
2017-Dec-08 08:00N 33°50' E 131°25'713.7
2017-Dec-08 07:31N 33°51' E 131°17'713.4
2017-Dec-08 07:00N 33°53' E 131°09'713.4
2017-Dec-08 06:31N 33°57' E 131°03'5 9.6
2017-Dec-08 06:01N 33°57' E 130°57'4 7.3
2017-Dec-08 05:30N 33°54' E 130°53'1 1.9
2017-Dec-08 05:01N 33°54' E 130°52'0 0.0
2017-Dec-08 04:29N 33°54' E 130°52'0 0.0
2017-Dec-08 03:59N 33°54' E 130°52'0 0.0
2017-Dec-08 03:29N 33°54' E 130°52'0 0.0
2017-Dec-08 02:59N 33°54' E 130°52'0 0.0
2017-Dec-08 02:26N 33°54' E 130°52'0 0.0
2017-Dec-08 01:59N 33°54' E 130°52'0 0.0
2017-Dec-08 01:29N 33°54' E 130°52'0 0.0
2017-Dec-08 00:59N 33°54' E 130°52'0 0.0
2017-Dec-08 00:29N 33°54' E 130°52'0 0.0
2017-Dec-07 23:59N 33°54' E 130°52'0 0.0
2017-Dec-07 23:29N 33°54' E 130°52'0 0.0
2017-Dec-07 22:59N 33°54' E 130°52'0 0.0
2017-Dec-07 22:29N 33°54' E 130°52'0 0.0
2017-Dec-07 21:59N 33°54' E 130°52'  

Dump ship's entire track history